createdAt,value
2022-10-19T00:08:41.886Z,96.7
2022-10-19T00:28:41.847Z,97.3
2022-10-19T00:48:41.829Z,96.2
2022-10-19T01:08:41.844Z,96.7
2022-10-19T01:28:41.788Z,96.6
2022-10-19T01:48:41.754Z,96.9
2022-10-19T02:08:41.719Z,97.1
2022-10-19T02:28:41.706Z,97.9
2022-10-19T02:48:41.700Z,97.8
2022-10-19T03:08:41.683Z,98.1
2022-10-19T03:28:41.623Z,98.5
2022-10-19T03:48:41.645Z,98.1
2022-10-19T04:08:41.580Z,98.2
2022-10-19T04:28:41.538Z,98.5
2022-10-19T04:48:41.535Z,97.8
2022-10-19T05:08:41.535Z,98.1
2022-10-19T05:28:41.483Z,97.8
2022-10-19T05:48:41.458Z,98.2
2022-10-19T06:08:41.441Z,98.8
2022-10-19T06:28:41.413Z,98.6
2022-10-19T06:48:41.415Z,99.1
2022-10-19T07:08:41.361Z,99.2
2022-10-19T07:28:41.325Z,99.1
2022-10-19T07:48:41.346Z,98.7
2022-10-19T08:08:41.280Z,98.6
2022-10-19T08:28:41.265Z,98.5
2022-10-19T08:48:41.274Z,98.3
2022-10-19T09:08:41.230Z,97.7
2022-10-19T09:28:41.178Z,97.2
2022-10-19T09:48:41.152Z,96.8
2022-10-19T10:08:41.138Z,96.0
2022-10-19T10:28:41.112Z,93.4
2022-10-19T10:48:41.078Z,92.0
2022-10-19T11:08:41.047Z,92.8
2022-10-19T11:28:41.072Z,87.7
2022-10-19T11:48:41.001Z,89.5
2022-10-19T12:08:40.989Z,91.1
2022-10-19T12:28:40.939Z,90.2
2022-10-19T12:48:40.918Z,88.3
2022-10-19T13:08:40.919Z,88.0
2022-10-19T13:28:40.894Z,90.3
2022-10-19T13:48:40.835Z,88.0
2022-10-19T14:08:40.805Z,87.2
2022-10-19T14:28:40.780Z,86.8
2022-10-19T14:48:40.756Z,86.1
2022-10-19T15:08:40.723Z,86.5
2022-10-19T15:28:40.707Z,87.7
2022-10-19T15:48:40.682Z,88.5
2022-10-19T16:08:40.643Z,87.5
2022-10-19T16:28:40.618Z,87.6
2022-10-19T16:48:40.596Z,88.1
2022-10-19T17:08:40.577Z,88.0
2022-10-19T17:28:40.548Z,88.6
2022-10-19T17:48:40.521Z,88.9
2022-10-19T18:08:40.486Z,89.0
2022-10-19T18:28:40.471Z,90.2
2022-10-19T18:48:40.441Z,91.5
2022-10-19T19:08:40.435Z,92.3
2022-10-19T19:28:40.407Z,92.4
2022-10-19T19:48:40.377Z,92.6
2022-10-19T20:08:40.347Z,93.6
2022-10-19T20:28:40.326Z,92.4
2022-10-19T20:48:40.290Z,94.3
2022-10-19T21:08:40.282Z,93.7
2022-10-19T21:28:40.249Z,94.5
2022-10-19T21:48:40.235Z,94.5
2022-10-19T22:08:40.221Z,94.7
2022-10-19T22:28:40.217Z,93.9
2022-10-19T22:48:40.176Z,94.0
2022-10-19T23:08:40.146Z,94.7
2022-10-19T23:28:40.163Z,95.6
2022-10-19T23:48:40.128Z,97.8
